createdAt,value
2022-09-28T00:01:29.561Z,67.83
2022-09-28T00:03:59.998Z,67.84
2022-09-28T00:06:28.441Z,67.69
2022-09-28T00:08:55.419Z,67.37
2022-09-28T00:11:23.310Z,67.57
2022-09-28T00:13:56.557Z,67.62
2022-09-28T00:16:26.963Z,67.35
2022-09-28T00:18:54.192Z,67.42
2022-09-28T00:21:22.861Z,67.63
2022-09-28T00:24:17.097Z,67.33
2022-09-28T00:26:45.610Z,67.07
2022-09-28T00:29:25.005Z,67.38
2022-09-28T00:31:53.487Z,67.12
2022-09-28T00:34:20.721Z,67.47
2022-09-28T00:36:48.149Z,66.78
2022-09-28T00:39:16.009Z,66.78
2022-09-28T00:41:43.145Z,66.87
2022-09-28T00:44:24.760Z,66.82
2022-09-28T00:47:17.074Z,66.57
2022-09-28T00:50:12.715Z,67.00
2022-09-28T00:52:48.585Z,67.10
2022-09-28T00:55:18.086Z,66.73
2022-09-28T00:57:50.877Z,67.07
2022-09-28T01:00:17.845Z,66.66
2022-09-28T01:02:45.817Z,67.02
2022-09-28T01:05:12.964Z,67.18
2022-09-28T01:07:40.236Z,67.00
2022-09-28T01:10:07.762Z,66.87
2022-09-28T01:12:34.339Z,67.15
2022-09-28T01:15:01.894Z,66.91
2022-09-28T01:17:50.916Z,66.89
2022-09-28T01:20:34.356Z,66.11
2022-09-28T01:23:43.705Z,66.11
2022-09-28T01:26:25.453Z,66.32
2022-09-28T01:29:03.561Z,66.57
2022-09-28T01:31:33.026Z,66.33
2022-09-28T01:34:07.701Z,66.99
2022-09-28T01:36:40.208Z,67.04
2022-09-28T01:39:10.120Z,67.03
2022-09-28T01:41:40.062Z,67.54
2022-09-28T01:44:08.862Z,66.83
2022-09-28T01:46:44.829Z,67.15
2022-09-28T01:49:17.364Z,67.22
2022-09-28T01:51:54.942Z,67.17
2022-09-28T01:54:26.292Z,66.95
2022-09-28T01:57:03.199Z,66.79
2022-09-28T01:59:31.188Z,67.11
2022-09-28T02:02:13.470Z,66.69
2022-09-28T02:04:48.213Z,66.73
2022-09-28T02:07:20.403Z,66.83
2022-09-28T02:09:51.688Z,67.29
2022-09-28T02:12:25.198Z,66.91
2022-09-28T02:14:55.336Z,66.78
2022-09-28T02:17:21.960Z,67.04
2022-09-28T02:19:48.729Z,66.72
2022-09-28T02:22:25.763Z,67.04
2022-09-28T02:24:59.734Z,67.16
2022-09-28T02:27:43.368Z,67.14
2022-09-28T02:30:10.511Z,66.76
2022-09-28T02:32:42.638Z,66.54
2022-09-28T02:35:11.787Z,66.54
2022-09-28T02:37:39.935Z,66.38
2022-09-28T02:40:16.997Z,66.56
2022-09-28T02:42:48.813Z,66.50
2022-09-28T02:45:46.271Z,66.44
2022-09-28T02:48:43.990Z,66.42
2022-09-28T02:51:39.485Z,66.25
2022-09-28T02:54:09.113Z,66.47
2022-09-28T02:56:52.455Z,66.95
2022-09-28T02:59:31.127Z,66.71
2022-09-28T03:02:20.614Z,66.84
2022-09-28T03:05:08.970Z,66.94
2022-09-28T03:07:45.566Z,66.37
2022-09-28T03:10:34.139Z,66.28
2022-09-28T03:13:01.808Z,66.48
2022-09-28T03:15:30.954Z,66.62
2022-09-28T03:17:58.623Z,66.72
2022-09-28T03:20:26.711Z,66.54
2022-09-28T03:23:12.735Z,66.88
2022-09-28T03:25:40.847Z,66.41
2022-09-28T03:28:07.455Z,66.69
2022-09-28T03:30:34.040Z,67.28
2022-09-28T03:33:02.490Z,66.87
2022-09-28T03:35:29.069Z,66.99
2022-09-28T03:37:56.819Z,66.76
2022-09-28T03:40:23.542Z,67.03
2022-09-28T03:42:50.225Z,66.84
2022-09-28T03:45:16.851Z,66.58
2022-09-28T03:47:48.655Z,66.35
2022-09-28T03:50:15.924Z,67.11
2022-09-28T03:52:42.829Z,66.28
2022-09-28T03:55:09.697Z,66.44
2022-09-28T03:57:36.358Z,66.08
2022-09-28T04:00:04.904Z,66.73
2022-09-28T04:02:31.560Z,66.29
2022-09-28T04:04:58.226Z,66.47
2022-09-28T04:07:28.972Z,66.62
2022-09-28T04:09:57.477Z,66.31
2022-09-28T04:12:24.060Z,66.37
2022-09-28T04:14:50.995Z,66.18
2022-09-28T04:17:17.701Z,66.26
2022-09-28T04:19:44.271Z,66.38
2022-09-28T04:22:10.822Z,66.38
2022-09-28T04:24:37.426Z,66.18
2022-09-28T04:27:22.532Z,65.86
2022-09-28T04:29:49.098Z,65.79
2022-09-28T04:32:15.684Z,65.55
2022-09-28T04:34:44.289Z,65.47
2022-09-28T04:37:11.157Z,66.08
2022-09-28T04:39:37.959Z,65.47
2022-09-28T04:42:04.768Z,65.70
2022-09-28T04:44:31.348Z,65.92
2022-09-28T04:47:00.649Z,65.58
2022-09-28T04:49:30.892Z,65.95
2022-09-28T04:51:57.456Z,65.90
2022-09-28T04:54:24.055Z,65.32
2022-09-28T04:56:51.214Z,65.72
2022-09-28T04:59:17.875Z,65.87
2022-09-28T05:01:44.734Z,65.53
2022-09-28T05:04:11.303Z,65.68
2022-09-28T05:06:37.886Z,65.27
2022-09-28T05:09:04.484Z,65.52
2022-09-28T05:11:31.100Z,65.35
2022-09-28T05:13:57.741Z,65.48
2022-09-28T05:16:26.196Z,65.56
2022-09-28T05:18:56.770Z,65.59
2022-09-28T05:21:25.418Z,65.48
2022-09-28T05:23:52.285Z,65.61
2022-09-28T05:26:18.944Z,65.85
2022-09-28T05:28:46.224Z,65.80
2022-09-28T05:31:12.799Z,65.92
2022-09-28T05:33:39.559Z,65.68
2022-09-28T05:36:09.251Z,64.97
2022-09-28T05:38:35.848Z,65.50
2022-09-28T05:41:06.405Z,65.58
2022-09-28T05:43:33.461Z,65.07
2022-09-28T05:46:00.665Z,65.37
2022-09-28T05:48:28.342Z,65.38
2022-09-28T05:50:55.042Z,65.14
2022-09-28T05:53:21.784Z,65.16
2022-09-28T05:55:48.728Z,64.84
2022-09-28T05:58:15.541Z,65.21
2022-09-28T06:00:42.497Z,65.36
2022-09-28T06:03:12.215Z,65.32
2022-09-28T06:05:42.316Z,65.23
2022-09-28T06:08:13.283Z,64.73
2022-09-28T06:10:43.437Z,65.07
2022-09-28T06:13:12.098Z,65.08
2022-09-28T06:15:39.257Z,65.13
2022-09-28T06:18:10.195Z,65.36
2022-09-28T06:20:38.884Z,65.50
2022-09-28T06:23:05.527Z,65.07
2022-09-28T06:25:32.296Z,65.12
2022-09-28T06:28:06.705Z,64.89
2022-09-28T06:30:38.394Z,65.06
2022-09-28T06:33:06.330Z,65.39
2022-09-28T06:35:32.985Z,65.27
2022-09-28T06:38:00.334Z,65.18
2022-09-28T06:40:27.638Z,65.39
2022-09-28T06:43:10.195Z,65.76
2022-09-28T06:45:37.761Z,65.87
2022-09-28T06:48:05.186Z,65.64
2022-09-28T06:50:35.984Z,65.87
2022-09-28T06:53:02.663Z,65.86
2022-09-28T06:55:29.967Z,65.94
2022-09-28T06:58:01.480Z,66.05
2022-09-28T07:00:29.410Z,66.03
2022-09-28T07:02:55.962Z,65.68
2022-09-28T07:05:27.093Z,65.65
2022-09-28T07:07:55.309Z,65.44
2022-09-28T07:10:23.410Z,65.90
2022-09-28T07:12:51.581Z,65.89
2022-09-28T07:15:18.663Z,65.82
2022-09-28T07:17:58.341Z,66.07
2022-09-28T07:20:27.798Z,65.91
2022-09-28T07:22:55.236Z,66.43
2022-09-28T07:25:23.172Z,66.29
2022-09-28T07:27:50.179Z,65.93
2022-09-28T07:30:17.005Z,66.20
2022-09-28T07:32:45.618Z,66.25
2022-09-28T07:35:12.205Z,66.12
2022-09-28T07:37:38.796Z,66.61
2022-09-28T07:40:26.185Z,65.87
2022-09-28T07:42:53.292Z,65.78
2022-09-28T07:45:25.907Z,66.38
2022-09-28T07:47:56.127Z,66.32
2022-09-28T07:50:22.919Z,66.76
2022-09-28T07:52:49.692Z,66.24
2022-09-28T07:55:16.260Z,66.19
2022-09-28T07:57:44.427Z,66.54
2022-09-28T08:00:11.551Z,66.37
2022-09-28T08:02:38.195Z,65.97
2022-09-28T08:05:05.257Z,66.06
2022-09-28T08:07:32.541Z,66.03
2022-09-28T08:09:59.149Z,66.16
2022-09-28T08:12:25.739Z,66.45
2022-09-28T08:14:52.732Z,66.91
2022-09-28T08:17:19.379Z,66.54
2022-09-28T08:20:04.409Z,66.66
2022-09-28T08:22:32.352Z,66.36
2022-09-28T08:24:58.996Z,66.25
2022-09-28T08:27:25.568Z,66.63
2022-09-28T08:29:52.113Z,67.14
2022-09-28T08:32:19.566Z,67.21
2022-09-28T08:34:46.109Z,67.10
2022-09-28T08:37:12.694Z,66.68
2022-09-28T08:39:39.319Z,66.87
2022-09-28T08:42:32.726Z,67.14
2022-09-28T08:45:23.026Z,66.73
2022-09-28T08:48:15.412Z,67.22
2022-09-28T08:50:49.330Z,66.92
2022-09-28T08:53:48.386Z,67.69
2022-09-28T08:56:30.893Z,66.94
2022-09-28T08:59:03.379Z,67.83
2022-09-28T09:01:39.376Z,67.43
2022-09-28T09:04:07.201Z,67.45
2022-09-28T09:06:56.572Z,68.13
2022-09-28T09:10:05.072Z,67.73
2022-09-28T09:12:48.463Z,67.86
2022-09-28T09:15:20.179Z,67.56
2022-09-28T09:18:00.795Z,67.75
2022-09-28T09:20:42.592Z,67.10
2022-09-28T09:23:18.499Z,67.03
2022-09-28T09:25:55.166Z,67.41
2022-09-28T09:28:43.960Z,67.15
2022-09-28T09:31:29.356Z,67.09
2022-09-28T09:34:11.247Z,67.05
2022-09-28T09:36:49.695Z,67.49
2022-09-28T09:39:25.328Z,67.42
2022-09-28T09:42:40.452Z,67.30
2022-09-28T09:45:31.450Z,67.62
2022-09-28T09:48:06.622Z,67.51
2022-09-28T09:50:51.699Z,67.12
2022-09-28T09:53:41.481Z,67.40
2022-09-28T09:56:17.076Z,66.90
2022-09-28T09:58:50.110Z,67.10
2022-09-28T10:01:20.334Z,67.04
2022-09-28T10:03:48.212Z,67.08
2022-09-28T10:06:22.204Z,66.87
2022-09-28T10:08:53.882Z,66.74
2022-09-28T10:11:29.015Z,67.18
2022-09-28T10:13:55.813Z,67.27
2022-09-28T10:16:22.458Z,67.31
2022-09-28T10:18:49.793Z,67.42
2022-09-28T10:21:18.864Z,67.40
2022-09-28T10:23:55.066Z,67.19
2022-09-28T10:26:29.557Z,67.54
2022-09-28T10:29:04.581Z,67.56
2022-09-28T10:31:42.777Z,67.80
2022-09-28T10:34:14.265Z,68.33
2022-09-28T10:36:59.982Z,68.25
2022-09-28T10:39:31.691Z,68.53
2022-09-28T10:42:02.617Z,68.78
2022-09-28T10:44:31.765Z,68.98
2022-09-28T10:47:08.841Z,68.71
2022-09-28T10:49:46.533Z,68.80
2022-09-28T10:52:36.547Z,69.30
2022-09-28T10:55:21.359Z,69.98
2022-09-28T10:57:48.281Z,68.60
2022-09-28T11:00:34.557Z,69.41
2022-09-28T11:03:02.323Z,69.24
2022-09-28T11:05:30.019Z,69.54
2022-09-28T11:07:58.518Z,69.09
2022-09-28T11:10:27.160Z,69.40
2022-09-28T11:12:54.670Z,69.78
2022-09-28T11:15:32.229Z,69.56
2022-09-28T11:18:31.419Z,69.25
2022-09-28T11:21:28.081Z,69.23
2022-09-28T11:24:06.978Z,69.09
2022-09-28T11:26:47.916Z,69.22
2022-09-28T11:29:41.876Z,69.42
2022-09-28T11:32:14.889Z,69.31
2022-09-28T11:34:59.106Z,69.06
2022-09-28T11:38:05.692Z,69.55
2022-09-28T11:41:16.856Z,69.34
2022-09-28T11:43:58.749Z,69.57
2022-09-28T11:46:44.513Z,69.68
2022-09-28T11:49:20.326Z,69.69
2022-09-28T11:51:48.580Z,68.99
2022-09-28T11:54:43.094Z,69.06
2022-09-28T11:57:15.995Z,69.08
2022-09-28T11:59:54.652Z,68.61
2022-09-28T12:02:26.085Z,69.05
2022-09-28T12:05:09.252Z,68.61
2022-09-28T12:07:39.820Z,69.32
2022-09-28T12:10:09.972Z,68.94
2022-09-28T12:12:48.104Z,68.94
2022-09-28T12:15:21.695Z,68.88
2022-09-28T12:17:57.458Z,69.48
2022-09-28T12:20:30.137Z,70.15
2022-09-28T12:22:59.972Z,70.08
2022-09-28T12:25:28.989Z,70.27
2022-09-28T12:28:06.408Z,69.91
2022-09-28T12:30:37.728Z,69.45
2022-09-28T12:33:09.282Z,69.89
2022-09-28T12:36:14.815Z,69.66
2022-09-28T12:39:17.698Z,69.53
2022-09-28T12:42:12.346Z,69.66
2022-09-28T12:44:46.003Z,69.33
2022-09-28T12:47:50.786Z,68.81
2022-09-28T12:50:42.708Z,69.15
2022-09-28T12:53:20.083Z,69.40
2022-09-28T12:56:06.250Z,69.79
2022-09-28T12:59:12.333Z,70.32
2022-09-28T13:02:12.941Z,70.11
2022-09-28T13:05:01.387Z,69.35
2022-09-28T13:07:50.718Z,69.23
2022-09-28T13:10:22.720Z,69.41
2022-09-28T13:12:49.255Z,69.47
2022-09-28T13:15:32.169Z,69.05
2022-09-28T13:18:05.072Z,69.81
2022-09-28T13:20:35.744Z,69.28
2022-09-28T13:23:10.098Z,68.99
2022-09-28T13:25:40.956Z,69.51
2022-09-28T13:28:07.695Z,68.89
2022-09-28T13:30:36.684Z,69.35
2022-09-28T13:33:05.429Z,69.14
2022-09-28T13:35:33.427Z,69.38
2022-09-28T13:38:18.294Z,69.38
2022-09-28T13:41:06.755Z,68.77
2022-09-28T13:44:10.666Z,68.92
2022-09-28T13:46:52.255Z,69.60
2022-09-28T13:49:45.571Z,69.78
2022-09-28T13:52:27.228Z,69.72
2022-09-28T13:55:09.679Z,69.17
2022-09-28T13:57:48.497Z,69.98
2022-09-28T14:00:38.669Z,69.70
2022-09-28T14:03:27.342Z,69.89
2022-09-28T14:06:21.581Z,69.52
2022-09-28T14:09:12.748Z,68.69
2022-09-28T14:11:42.551Z,69.01
2022-09-28T14:14:12.083Z,68.75
2022-09-28T14:16:39.761Z,68.56
2022-09-28T14:19:24.329Z,68.52
2022-09-28T14:22:28.533Z,69.12
2022-09-28T14:25:01.289Z,68.73
2022-09-28T14:27:53.036Z,69.36
2022-09-28T14:30:25.788Z,68.41
2022-09-28T14:32:56.169Z,69.06
2022-09-28T14:35:41.928Z,68.77
2022-09-28T14:38:33.643Z,69.01
2022-09-28T14:41:10.105Z,69.57
2022-09-28T14:44:06.548Z,68.92
2022-09-28T14:46:38.055Z,69.13
2022-09-28T14:49:04.658Z,69.40
2022-09-28T14:51:31.202Z,68.98
2022-09-28T14:54:17.211Z,69.66
2022-09-28T14:56:57.930Z,69.38
2022-09-28T14:59:29.565Z,69.88
2022-09-28T15:02:16.975Z,69.31
2022-09-28T15:04:53.254Z,69.76
2022-09-28T15:07:34.282Z,70.14
2022-09-28T15:10:02.471Z,69.90
2022-09-28T15:12:32.223Z,69.81
2022-09-28T15:15:04.723Z,69.74
2022-09-28T15:17:40.242Z,70.42
2022-09-28T15:20:25.842Z,69.88
2022-09-28T15:22:57.373Z,70.57
2022-09-28T15:25:26.819Z,70.17
2022-09-28T15:27:56.135Z,69.98
2022-09-28T15:30:31.965Z,70.93
2022-09-28T15:33:19.079Z,70.66
2022-09-28T15:36:01.403Z,71.46
2022-09-28T15:38:28.294Z,71.42
2022-09-28T15:40:56.101Z,71.19
2022-09-28T15:43:26.802Z,71.99
2022-09-28T15:46:15.406Z,71.18
2022-09-28T15:48:52.822Z,71.40
2022-09-28T15:51:22.076Z,70.94
2022-09-28T15:54:03.016Z,71.50
2022-09-28T15:56:30.356Z,71.32
2022-09-28T15:59:15.414Z,71.44
2022-09-28T16:01:45.531Z,71.44
2022-09-28T16:05:00.787Z,71.45
2022-09-28T16:07:56.576Z,71.32
2022-09-28T16:10:33.554Z,70.44
2022-09-28T16:13:15.660Z,70.61
2022-09-28T16:15:42.708Z,70.32
2022-09-28T16:18:19.019Z,70.79
2022-09-28T16:20:48.363Z,70.05
2022-09-28T16:23:17.870Z,70.13
2022-09-28T16:25:49.509Z,70.88
2022-09-28T16:28:38.299Z,70.38
2022-09-28T16:31:07.645Z,70.06
2022-09-28T16:33:54.230Z,70.23
2022-09-28T16:36:22.515Z,70.10
2022-09-28T16:38:49.590Z,70.68
2022-09-28T16:41:19.552Z,70.57
2022-09-28T16:43:46.591Z,70.79
2022-09-28T16:46:16.043Z,70.68
2022-09-28T16:48:49.936Z,70.24
2022-09-28T16:51:22.035Z,70.64
2022-09-28T16:54:07.780Z,70.33
2022-09-28T16:56:35.353Z,71.06
2022-09-28T16:59:02.437Z,70.87
2022-09-28T17:01:32.098Z,70.72
2022-09-28T17:03:58.855Z,70.81
2022-09-28T17:06:25.601Z,70.50
2022-09-28T17:08:52.649Z,70.92
2022-09-28T17:11:24.220Z,70.57
2022-09-28T17:13:51.848Z,71.36
2022-09-28T17:16:49.379Z,71.10
2022-09-28T17:19:22.310Z,71.05
2022-09-28T17:21:49.467Z,71.05
2022-09-28T17:24:16.200Z,70.89
2022-09-28T17:26:44.424Z,71.33
2022-09-28T17:29:14.678Z,71.28
2022-09-28T17:31:45.710Z,71.67
2022-09-28T17:34:15.300Z,71.29
2022-09-28T17:36:42.964Z,71.52
2022-09-28T17:39:12.395Z,71.42
2022-09-28T17:41:40.180Z,71.37
2022-09-28T17:44:06.879Z,71.34
2022-09-28T17:46:39.637Z,71.17
2022-09-28T17:49:08.095Z,70.97
2022-09-28T17:51:37.516Z,71.02
2022-09-28T17:54:06.089Z,70.77
2022-09-28T17:56:32.983Z,71.28
2022-09-28T17:59:01.484Z,71.12
2022-09-28T18:01:33.978Z,71.36
2022-09-28T18:04:05.394Z,70.75
2022-09-28T18:06:37.263Z,71.10
2022-09-28T18:09:05.008Z,71.15
2022-09-28T18:11:32.275Z,70.89
2022-09-28T18:13:59.029Z,71.56
2022-09-28T18:16:27.917Z,71.81
2022-09-28T18:18:54.885Z,71.53
2022-09-28T18:21:21.494Z,71.02
2022-09-28T18:23:48.090Z,70.84
2022-09-28T18:26:15.858Z,71.40
2022-09-28T18:28:42.522Z,70.95
2022-09-28T18:31:10.613Z,71.80
2022-09-28T18:33:37.853Z,71.25
2022-09-28T18:36:06.186Z,71.44
2022-09-28T18:38:35.490Z,71.82
2022-09-28T18:41:16.586Z,71.33
2022-09-28T18:43:48.963Z,71.14
2022-09-28T18:46:17.440Z,71.35
2022-09-28T18:48:44.369Z,70.93
2022-09-28T18:51:12.362Z,70.73
2022-09-28T18:53:39.672Z,70.84
2022-09-28T18:56:08.251Z,70.50
2022-09-28T18:58:39.881Z,70.58
2022-09-28T19:01:28.325Z,70.72
2022-09-28T19:03:55.248Z,70.57
2022-09-28T19:06:21.832Z,70.51
2022-09-28T19:08:53.150Z,70.37
2022-09-28T19:11:19.834Z,70.83
2022-09-28T19:13:46.416Z,70.16
2022-09-28T19:16:18.928Z,70.51
2022-09-28T19:18:45.579Z,70.08
2022-09-28T19:21:14.127Z,70.01
2022-09-28T19:23:45.749Z,70.64
2022-09-28T19:26:17.935Z,70.14
2022-09-28T19:28:44.596Z,70.54
2022-09-28T19:31:11.648Z,70.19
2022-09-28T19:33:39.346Z,70.73
2022-09-28T19:36:13.563Z,70.68
2022-09-28T19:38:40.860Z,70.71
2022-09-28T19:41:12.860Z,69.98
2022-09-28T19:43:43.661Z,70.40
2022-09-28T19:46:10.780Z,70.47
2022-09-28T19:48:37.398Z,70.34
2022-09-28T19:51:05.991Z,70.28
2022-09-28T19:53:38.002Z,69.80
2022-09-28T19:56:05.587Z,69.75
2022-09-28T19:58:34.873Z,70.42
2022-09-28T20:01:08.475Z,69.54
2022-09-28T20:03:35.173Z,69.67
2022-09-28T20:06:02.126Z,69.46
2022-09-28T20:08:30.223Z,69.71
2022-09-28T20:10:59.625Z,69.67
2022-09-28T20:13:34.249Z,70.06
2022-09-28T20:16:12.035Z,70.30
2022-09-28T20:18:40.222Z,69.57
2022-09-28T20:21:09.539Z,69.11
2022-09-28T20:23:40.295Z,69.42
2022-09-28T20:26:09.165Z,69.04
2022-09-28T20:28:35.740Z,69.53
2022-09-28T20:31:11.707Z,69.43
2022-09-28T20:33:39.060Z,69.36
2022-09-28T20:36:12.255Z,69.65
2022-09-28T20:38:40.593Z,69.26
2022-09-28T20:41:08.484Z,68.95
2022-09-28T20:43:35.279Z,68.97
2022-09-28T20:46:03.434Z,68.73
2022-09-28T20:48:30.536Z,69.09
2022-09-28T20:51:03.244Z,69.19
2022-09-28T20:53:33.347Z,68.65
2022-09-28T20:56:07.830Z,68.97
2022-09-28T20:58:34.679Z,68.88
2022-09-28T21:01:09.598Z,68.71
2022-09-28T21:03:37.668Z,69.24
2022-09-28T21:06:10.038Z,69.04
2022-09-28T21:08:38.687Z,68.28
2022-09-28T21:11:06.575Z,68.57
2022-09-28T21:13:33.488Z,69.12
2022-09-28T21:16:04.214Z,68.58
2022-09-28T21:18:30.861Z,68.20
2022-09-28T21:20:57.462Z,68.19
2022-09-28T21:23:25.067Z,68.22
2022-09-28T21:26:08.154Z,68.33
2022-09-28T21:28:35.661Z,68.16
2022-09-28T21:31:04.197Z,68.57
2022-09-28T21:33:30.808Z,68.19
2022-09-28T21:36:04.357Z,68.16
2022-09-28T21:38:31.283Z,68.09
2022-09-28T21:40:59.330Z,67.99
2022-09-28T21:43:31.218Z,67.95
2022-09-28T21:45:58.265Z,67.80
2022-09-28T21:48:26.828Z,67.96
2022-09-28T21:50:57.047Z,67.77
2022-09-28T21:53:29.045Z,67.92
2022-09-28T21:55:56.677Z,67.90
2022-09-28T21:58:25.271Z,68.04
2022-09-28T22:01:14.796Z,67.88
2022-09-28T22:03:43.963Z,67.83
2022-09-28T22:06:11.204Z,67.69
2022-09-28T22:08:38.326Z,67.64
2022-09-28T22:11:13.105Z,67.78
2022-09-28T22:13:42.594Z,68.02
2022-09-28T22:16:10.675Z,68.49
2022-09-28T22:18:37.388Z,67.91
2022-09-28T22:21:06.619Z,67.60
2022-09-28T22:23:34.037Z,67.90
2022-09-28T22:26:07.053Z,67.99
2022-09-28T22:28:34.297Z,67.51
2022-09-28T22:31:01.155Z,67.24
2022-09-28T22:33:27.978Z,67.12
2022-09-28T22:35:55.317Z,67.20
2022-09-28T22:38:24.162Z,67.11
2022-09-28T22:40:53.094Z,67.49
2022-09-28T22:43:19.844Z,67.16
2022-09-28T22:45:46.757Z,66.87
2022-09-28T22:48:13.575Z,67.04
2022-09-28T22:50:48.478Z,67.13
2022-09-28T22:53:15.234Z,67.18
2022-09-28T22:55:42.474Z,67.00
2022-09-28T22:58:09.438Z,67.34
2022-09-28T23:00:36.099Z,66.94
2022-09-28T23:03:02.758Z,66.88
2022-09-28T23:05:29.406Z,66.89
2022-09-28T23:07:55.973Z,66.86
2022-09-28T23:10:22.571Z,66.95
2022-09-28T23:12:49.354Z,66.51
2022-09-28T23:15:16.142Z,67.08
2022-09-28T23:17:42.713Z,66.33
2022-09-28T23:20:09.538Z,66.76
2022-09-28T23:22:36.200Z,66.91
2022-09-28T23:25:02.824Z,66.42
2022-09-28T23:27:29.397Z,66.79
2022-09-28T23:29:56.044Z,66.65
2022-09-28T23:32:22.758Z,66.66
2022-09-28T23:34:49.413Z,66.68
2022-09-28T23:37:15.989Z,66.22
2022-09-28T23:39:42.575Z,66.60
2022-09-28T23:42:09.178Z,66.26
2022-09-28T23:44:36.474Z,66.35
2022-09-28T23:47:03.122Z,66.47
2022-09-28T23:49:29.865Z,66.16
2022-09-28T23:51:56.422Z,66.24
2022-09-28T23:54:23.077Z,66.13
2022-09-28T23:56:49.816Z,66.23
2022-09-28T23:59:16.428Z,66.10
